If you wish to contribute or participate in the discussions about articles you are invited to join SKYbrary as a registered user

 Actions

Ambler Airport

From SKYbrary Wiki

PAFM
Airport
ICAO: PAFM – IATA: ABL
Summary
Name Ambler Airport
Region North America
Territory Alaska US.gif
Location Ambler, Alaska
Serving Ambler
Elevation 101.803 m <br />334 ft <br />334 ft101.803 m <br />
Type medium airport
Coordinates 67° 6' 23.00" N, 157° 51' 27.00" W
Runways
Designator Length Width Surface ROPS
9/27 732 m2,401.575 ft <br /> 18 m59.055 ft <br /> GVL /
18/36 914 m2,998.688 ft <br /> 18 m59.055 ft <br /> GVL /


METAR
Observation PAFM 040856Z AUTO 03005KT 10SM CLR M28/M33 A3012 RMK AO2 SLP213 T12781333 53002 FZRANO
Station Ambler, Ambler Airport
Date/Time 04 March 2021 08:56:00
Wind direction 30°
Wind speed 05 kts
Lowest cloud amount n/a
Temperature
Dew point
Humidity 59%
QNH hPa
Weather condition n/a

Maps

Terrain

Loading map...

Airport Layout

Loading map...


Accidents & Serious Incidents at or in vicinity of PAFM

None on SKYbrary